sensor_id;sensor_type;location;lat;lon;timestamp;P1;durP1;ratioP1;P2;durP2;ratioP2
36355;SDS011;22384;54.302;18.596;2023-10-09T00:00:11;3.38;;;1.25;;
36355;SDS011;22384;54.302;18.596;2023-10-09T00:02:56;2.03;;;1.20;;
36355;SDS011;22384;54.302;18.596;2023-10-09T00:05:26;1.67;;;1.30;;
36355;SDS011;22384;54.302;18.596;2023-10-09T00:08:14;3.10;;;1.17;;
36355;SDS011;22384;54.302;18.596;2023-10-09T00:11:09;4.03;;;1.30;;
36355;SDS011;22384;54.302;18.596;2023-10-09T00:13:42;5.72;;;1.50;;
36355;SDS011;22384;54.302;18.596;2023-10-09T00:16:17;1.88;;;1.10;;
36355;SDS011;22384;54.302;18.596;2023-10-09T00:18:49;3.90;;;1.20;;
36355;SDS011;22384;54.302;18.596;2023-10-09T00:21:16;6.30;;;1.60;;
36355;SDS011;22384;54.302;18.596;2023-10-09T00:23:45;3.58;;;1.67;;
36355;SDS011;22384;54.302;18.596;2023-10-09T00:26:17;7.90;;;2.00;;
36355;SDS011;22384;54.302;18.596;2023-10-09T00:28:46;3.65;;;2.00;;
36355;SDS011;22384;54.302;18.596;2023-10-09T00:31:13;2.42;;;1.42;;
36355;SDS011;22384;54.302;18.596;2023-10-09T00:33:51;3.47;;;1.67;;
36355;SDS011;22384;54.302;18.596;2023-10-09T00:36:17;4.07;;;1.45;;
36355;SDS011;22384;54.302;18.596;2023-10-09T00:38:52;3.78;;;1.85;;
36355;SDS011;22384;54.302;18.596;2023-10-09T00:41:18;4.15;;;1.83;;
36355;SDS011;22384;54.302;18.596;2023-10-09T00:43:45;3.78;;;1.50;;
36355;SDS011;22384;54.302;18.596;2023-10-09T00:46:14;2.92;;;1.70;;
36355;SDS011;22384;54.302;18.596;2023-10-09T00:48:43;4.57;;;1.52;;
36355;SDS011;22384;54.302;18.596;2023-10-09T00:51:13;5.72;;;1.30;;
36355;SDS011;22384;54.302;18.596;2023-10-09T00:53:44;2.90;;;1.55;;
36355;SDS011;22384;54.302;18.596;2023-10-09T00:56:13;3.47;;;1.70;;
36355;SDS011;22384;54.302;18.596;2023-10-09T00:59:06;4.55;;;1.60;;
36355;SDS011;22384;54.302;18.596;2023-10-09T01:01:45;2.30;;;1.20;;
36355;SDS011;22384;54.302;18.596;2023-10-09T01:04:21;3.35;;;1.15;;
36355;SDS011;22384;54.302;18.596;2023-10-09T01:06:50;2.50;;;1.10;;
36355;SDS011;22384;54.302;18.596;2023-10-09T01:09:39;3.40;;;1.50;;
36355;SDS011;22384;54.302;18.596;2023-10-09T01:12:09;4.40;;;1.40;;
36355;SDS011;22384;54.302;18.596;2023-10-09T01:14:42;4.40;;;1.40;;
36355;SDS011;22384;54.302;18.596;2023-10-09T01:17:08;2.53;;;1.00;;
36355;SDS011;22384;54.302;18.596;2023-10-09T01:19:36;1.92;;;1.02;;
36355;SDS011;22384;54.302;18.596;2023-10-09T01:22:02;1.88;;;1.10;;
36355;SDS011;22384;54.302;18.596;2023-10-09T01:24:35;2.47;;;1.33;;
36355;SDS011;22384;54.302;18.596;2023-10-09T01:27:03;2.65;;;1.15;;
36355;SDS011;22384;54.302;18.596;2023-10-09T01:29:36;5.07;;;1.40;;
36355;SDS011;22384;54.302;18.596;2023-10-09T01:32:02;3.20;;;1.00;;
36355;SDS011;22384;54.302;18.596;2023-10-09T01:34:33;1.95;;;0.90;;
36355;SDS011;22384;54.302;18.596;2023-10-09T01:37:17;2.05;;;1.00;;
36355;SDS011;22384;54.302;18.596;2023-10-09T01:39:50;2.38;;;0.93;;
36355;SDS011;22384;54.302;18.596;2023-10-09T01:42:19;1.83;;;1.00;;
36355;SDS011;22384;54.302;18.596;2023-10-09T01:45:10;2.90;;;1.33;;
36355;SDS011;22384;54.302;18.596;2023-10-09T01:47:36;6.03;;;1.65;;
36355;SDS011;22384;54.302;18.596;2023-10-09T01:50:05;5.20;;;1.60;;
36355;SDS011;22384;54.302;18.596;2023-10-09T01:52:37;2.83;;;1.42;;
36355;SDS011;22384;54.302;18.596;2023-10-09T01:55:04;2.35;;;0.95;;
36355;SDS011;22384;54.302;18.596;2023-10-09T01:57:32;6.13;;;1.50;;
36355;SDS011;22384;54.302;18.596;2023-10-09T01:59:59;4.93;;;1.25;;
36355;SDS011;22384;54.302;18.596;2023-10-09T02:02:25;2.60;;;1.30;;
36355;SDS011;22384;54.302;18.596;2023-10-09T02:05:09;2.60;;;1.00;;
36355;SDS011;22384;54.302;18.596;2023-10-09T02:07:49;2.05;;;1.13;;
36355;SDS011;22384;54.302;18.596;2023-10-09T02:10:19;1.95;;;1.08;;
36355;SDS011;22384;54.302;18.596;2023-10-09T02:12:52;2.58;;;1.20;;
36355;SDS011;22384;54.302;18.596;2023-10-09T02:15:26;5.22;;;1.13;;
36355;SDS011;22384;54.302;18.596;2023-10-09T02:18:17;1.58;;;1.10;;
36355;SDS011;22384;54.302;18.596;2023-10-09T02:20:48;5.85;;;1.58;;
36355;SDS011;22384;54.302;18.596;2023-10-09T02:23:29;3.33;;;1.23;;
36355;SDS011;22384;54.302;18.596;2023-10-09T02:26:15;3.30;;;1.25;;
36355;SDS011;22384;54.302;18.596;2023-10-09T02:28:54;8.23;;;1.38;;
36355;SDS011;22384;54.302;18.596;2023-10-09T02:31:46;2.90;;;1.10;;
36355;SDS011;22384;54.302;18.596;2023-10-09T02:34:16;3.40;;;1.33;;
36355;SDS011;22384;54.302;18.596;2023-10-09T02:36:49;1.95;;;1.15;;
36355;SDS011;22384;54.302;18.596;2023-10-09T02:39:23;3.03;;;1.40;;
36355;SDS011;22384;54.302;18.596;2023-10-09T02:41:52;1.83;;;1.05;;
36355;SDS011;22384;54.302;18.596;2023-10-09T02:44:44;1.45;;;1.05;;
36355;SDS011;22384;54.302;18.596;2023-10-09T02:47:15;4.65;;;1.35;;
36355;SDS011;22384;54.302;18.596;2023-10-09T02:50:03;2.50;;;1.10;;
36355;SDS011;22384;54.302;18.596;2023-10-09T02:52:44;4.78;;;1.48;;
36355;SDS011;22384;54.302;18.596;2023-10-09T02:55:14;1.25;;;0.90;;
36355;SDS011;22384;54.302;18.596;2023-10-09T02:57:49;3.58;;;1.17;;
36355;SDS011;22384;54.302;18.596;2023-10-09T03:00:30;2.65;;;1.00;;
36355;SDS011;22384;54.302;18.596;2023-10-09T03:03:01;1.50;;;0.95;;
36355;SDS011;22384;54.302;18.596;2023-10-09T03:05:29;2.58;;;1.08;;
36355;SDS011;22384;54.302;18.596;2023-10-09T03:07:55;2.60;;;1.00;;
36355;SDS011;22384;54.302;18.596;2023-10-09T03:10:22;4.10;;;1.00;;
36355;SDS011;22384;54.302;18.596;2023-10-09T03:12:48;3.75;;;1.10;;
36355;SDS011;22384;54.302;18.596;2023-10-09T03:15:21;2.22;;;1.20;;
36355;SDS011;22384;54.302;18.596;2023-10-09T03:17:47;3.10;;;1.27;;
36355;SDS011;22384;54.302;18.596;2023-10-09T03:20:14;1.83;;;0.80;;
36355;SDS011;22384;54.302;18.596;2023-10-09T03:22:42;2.85;;;0.98;;
36355;SDS011;22384;54.302;18.596;2023-10-09T03:25:09;3.88;;;1.17;;
36355;SDS011;22384;54.302;18.596;2023-10-09T03:27:42;3.53;;;0.70;;
36355;SDS011;22384;54.302;18.596;2023-10-09T03:30:15;2.93;;;1.17;;
36355;SDS011;22384;54.302;18.596;2023-10-09T03:32:43;2.65;;;0.90;;
36355;SDS011;22384;54.302;18.596;2023-10-09T03:35:12;2.85;;;1.25;;
36355;SDS011;22384;54.302;18.596;2023-10-09T03:37:41;2.22;;;1.00;;
36355;SDS011;22384;54.302;18.596;2023-10-09T03:40:07;3.33;;;1.20;;
36355;SDS011;22384;54.302;18.596;2023-10-09T03:42:39;2.17;;;1.05;;
36355;SDS011;22384;54.302;18.596;2023-10-09T03:45:07;4.80;;;1.38;;
36355;SDS011;22384;54.302;18.596;2023-10-09T03:47:54;3.28;;;0.90;;
36355;SDS011;22384;54.302;18.596;2023-10-09T03:50:33;2.28;;;1.00;;
36355;SDS011;22384;54.302;18.596;2023-10-09T03:53:06;3.22;;;1.20;;
36355;SDS011;22384;54.302;18.596;2023-10-09T03:55:33;1.92;;;1.10;;
36355;SDS011;22384;54.302;18.596;2023-10-09T03:57:59;2.85;;;1.10;;
36355;SDS011;22384;54.302;18.596;2023-10-09T04:00:27;1.73;;;0.90;;
36355;SDS011;22384;54.302;18.596;2023-10-09T04:02:57;3.30;;;1.20;;
36355;SDS011;22384;54.302;18.596;2023-10-09T04:05:23;2.65;;;1.00;;
36355;SDS011;22384;54.302;18.596;2023-10-09T04:07:50;2.10;;;1.10;;
36355;SDS011;22384;54.302;18.596;2023-10-09T04:10:18;2.95;;;1.02;;
36355;SDS011;22384;54.302;18.596;2023-10-09T04:13:03;4.10;;;1.00;;
36355;SDS011;22384;54.302;18.596;2023-10-09T04:15:34;4.45;;;0.98;;
36355;SDS011;22384;54.302;18.596;2023-10-09T04:18:01;1.77;;;1.00;;
36355;SDS011;22384;54.302;18.596;2023-10-09T04:20:28;5.43;;;1.00;;
36355;SDS011;22384;54.302;18.596;2023-10-09T04:22:54;3.83;;;1.10;;
36355;SDS011;22384;54.302;18.596;2023-10-09T04:25:30;1.75;;;0.90;;
36355;SDS011;22384;54.302;18.596;2023-10-09T04:28:10;1.38;;;0.80;;
36355;SDS011;22384;54.302;18.596;2023-10-09T04:30:44;1.60;;;0.80;;
36355;SDS011;22384;54.302;18.596;2023-10-09T04:33:20;2.45;;;1.10;;
36355;SDS011;22384;54.302;18.596;2023-10-09T04:36:07;3.17;;;1.15;;
36355;SDS011;22384;54.302;18.596;2023-10-09T04:38:45;7.18;;;0.93;;
36355;SDS011;22384;54.302;18.596;2023-10-09T04:41:30;1.70;;;0.90;;
36355;SDS011;22384;54.302;18.596;2023-10-09T04:44:19;2.78;;;1.10;;
36355;SDS011;22384;54.302;18.596;2023-10-09T04:46:49;4.63;;;1.00;;
36355;SDS011;22384;54.302;18.596;2023-10-09T04:49:34;1.50;;;0.77;;
36355;SDS011;22384;54.302;18.596;2023-10-09T04:52:19;0.70;;;0.70;;
36355;SDS011;22384;54.302;18.596;2023-10-09T04:54:54;1.77;;;0.80;;
36355;SDS011;22384;54.302;18.596;2023-10-09T04:57:32;2.88;;;1.27;;
36355;SDS011;22384;54.302;18.596;2023-10-09T05:00:07;2.55;;;1.30;;
36355;SDS011;22384;54.302;18.596;2023-10-09T05:02:57;4.67;;;1.33;;
36355;SDS011;22384;54.302;18.596;2023-10-09T05:05:25;2.83;;;1.35;;
36355;SDS011;22384;54.302;18.596;2023-10-09T05:08:13;3.22;;;1.00;;
36355;SDS011;22384;54.302;18.596;2023-10-09T05:10:52;2.60;;;1.10;;
36355;SDS011;22384;54.302;18.596;2023-10-09T05:18:38;2.40;;;0.90;;
36355;SDS011;22384;54.302;18.596;2023-10-09T05:21:05;4.20;;;1.35;;
36355;SDS011;22384;54.302;18.596;2023-10-09T05:23:49;2.70;;;1.13;;
36355;SDS011;22384;54.302;18.596;2023-10-09T05:26:36;2.05;;;0.98;;
36355;SDS011;22384;54.302;18.596;2023-10-09T05:31:46;7.47;;;2.00;;
36355;SDS011;22384;54.302;18.596;2023-10-09T05:34:22;3.72;;;1.30;;
36355;SDS011;22384;54.302;18.596;2023-10-09T05:36:51;4.35;;;1.20;;
36355;SDS011;22384;54.302;18.596;2023-10-09T05:39:17;3.63;;;1.42;;
36355;SDS011;22384;54.302;18.596;2023-10-09T05:41:47;0.52;;;0.50;;
36355;SDS011;22384;54.302;18.596;2023-10-09T05:44:16;4.22;;;1.38;;
36355;SDS011;22384;54.302;18.596;2023-10-09T05:46:54;4.40;;;1.50;;
36355;SDS011;22384;54.302;18.596;2023-10-09T05:49:39;4.80;;;1.60;;
36355;SDS011;22384;54.302;18.596;2023-10-09T05:52:14;4.18;;;1.80;;
36355;SDS011;22384;54.302;18.596;2023-10-09T05:54:57;4.60;;;1.85;;
36355;SDS011;22384;54.302;18.596;2023-10-09T05:57:42;4.50;;;2.00;;
36355;SDS011;22384;54.302;18.596;2023-10-09T06:00:26;6.18;;;2.03;;
36355;SDS011;22384;54.302;18.596;2023-10-09T06:03:11;8.52;;;2.03;;
36355;SDS011;22384;54.302;18.596;2023-10-09T06:05:46;4.55;;;1.85;;
36355;SDS011;22384;54.302;18.596;2023-10-09T06:08:22;5.22;;;1.17;;
36355;SDS011;22384;54.302;18.596;2023-10-09T06:11:07;4.15;;;1.35;;
36355;SDS011;22384;54.302;18.596;2023-10-09T06:13:51;4.65;;;1.60;;
36355;SDS011;22384;54.302;18.596;2023-10-09T06:16:29;3.33;;;1.67;;
36355;SDS011;22384;54.302;18.596;2023-10-09T06:19:06;6.45;;;1.65;;
36355;SDS011;22384;54.302;18.596;2023-10-09T06:21:56;3.50;;;1.10;;
36355;SDS011;22384;54.302;18.596;2023-10-09T06:24:37;4.07;;;1.17;;
36355;SDS011;22384;54.302;18.596;2023-10-09T06:27:03;5.57;;;1.05;;
36355;SDS011;22384;54.302;18.596;2023-10-09T06:29:30;5.43;;;1.40;;
36355;SDS011;22384;54.302;18.596;2023-10-09T06:32:03;2.35;;;1.15;;
36355;SDS011;22384;54.302;18.596;2023-10-09T06:37:39;4.45;;;1.20;;
36355;SDS011;22384;54.302;18.596;2023-10-09T06:40:24;8.15;;;1.42;;
36355;SDS011;22384;54.302;18.596;2023-10-09T06:43:09;1.98;;;0.93;;
36355;SDS011;22384;54.302;18.596;2023-10-09T06:45:42;2.00;;;1.00;;
36355;SDS011;22384;54.302;18.596;2023-10-09T06:48:11;2.70;;;1.00;;
36355;SDS011;22384;54.302;18.596;2023-10-09T06:51:13;5.07;;;1.35;;
36355;SDS011;22384;54.302;18.596;2023-10-09T06:53:55;2.75;;;1.15;;
36355;SDS011;22384;54.302;18.596;2023-10-09T06:56:21;3.38;;;0.82;;
36355;SDS011;22384;54.302;18.596;2023-10-09T06:59:00;2.88;;;1.25;;
36355;SDS011;22384;54.302;18.596;2023-10-09T07:01:40;3.85;;;1.25;;
36355;SDS011;22384;54.302;18.596;2023-10-09T07:04:09;2.83;;;1.25;;
36355;SDS011;22384;54.302;18.596;2023-10-09T07:06:46;3.03;;;0.95;;
36355;SDS011;22384;54.302;18.596;2023-10-09T07:09:13;2.50;;;1.10;;
36355;SDS011;22384;54.302;18.596;2023-10-09T07:11:43;3.20;;;1.30;;
36355;SDS011;22384;54.302;18.596;2023-10-09T07:14:10;2.22;;;1.23;;
36355;SDS011;22384;54.302;18.596;2023-10-09T07:16:56;2.88;;;1.35;;
36355;SDS011;22384;54.302;18.596;2023-10-09T07:19:30;4.18;;;1.52;;
36355;SDS011;22384;54.302;18.596;2023-10-09T07:21:59;5.95;;;1.25;;
36355;SDS011;22384;54.302;18.596;2023-10-09T07:24:29;3.47;;;1.17;;
36355;SDS011;22384;54.302;18.596;2023-10-09T07:27:11;6.40;;;1.48;;
36355;SDS011;22384;54.302;18.596;2023-10-09T07:29:41;3.17;;;1.48;;
36355;SDS011;22384;54.302;18.596;2023-10-09T07:32:13;2.90;;;1.38;;
36355;SDS011;22384;54.302;18.596;2023-10-09T07:34:45;4.03;;;1.77;;
36355;SDS011;22384;54.302;18.596;2023-10-09T07:37:18;5.80;;;1.75;;
36355;SDS011;22384;54.302;18.596;2023-10-09T07:39:44;7.03;;;2.28;;
36355;SDS011;22384;54.302;18.596;2023-10-09T07:42:22;8.07;;;2.22;;
36355;SDS011;22384;54.302;18.596;2023-10-09T07:45:06;4.25;;;2.65;;
36355;SDS011;22384;54.302;18.596;2023-10-09T07:47:47;3.17;;;1.55;;
36355;SDS011;22384;54.302;18.596;2023-10-09T07:50:27;4.10;;;1.58;;
36355;SDS011;22384;54.302;18.596;2023-10-09T07:53:06;5.80;;;1.52;;
36355;SDS011;22384;54.302;18.596;2023-10-09T07:55:51;5.50;;;1.58;;
36355;SDS011;22384;54.302;18.596;2023-10-09T07:58:21;5.00;;;1.58;;
36355;SDS011;22384;54.302;18.596;2023-10-09T08:00:53;7.32;;;1.40;;
36355;SDS011;22384;54.302;18.596;2023-10-09T08:03:35;2.70;;;1.23;;
36355;SDS011;22384;54.302;18.596;2023-10-09T08:06:02;12.85;;;1.90;;
36355;SDS011;22384;54.302;18.596;2023-10-09T08:08:46;5.90;;;1.83;;
36355;SDS011;22384;54.302;18.596;2023-10-09T08:11:29;4.35;;;1.70;;
36355;SDS011;22384;54.302;18.596;2023-10-09T08:14:10;4.95;;;1.48;;
36355;SDS011;22384;54.302;18.596;2023-10-09T08:16:54;3.10;;;1.42;;
36355;SDS011;22384;54.302;18.596;2023-10-09T08:19:39;2.70;;;1.70;;
36355;SDS011;22384;54.302;18.596;2023-10-09T08:24:49;3.55;;;1.35;;
36355;SDS011;22384;54.302;18.596;2023-10-09T08:27:21;2.95;;;1.23;;
36355;SDS011;22384;54.302;18.596;2023-10-09T08:29:57;4.25;;;1.30;;
36355;SDS011;22384;54.302;18.596;2023-10-09T08:32:42;5.80;;;1.38;;
36355;SDS011;22384;54.302;18.596;2023-10-09T08:35:25;3.03;;;1.27;;
36355;SDS011;22384;54.302;18.596;2023-10-09T08:37:57;3.03;;;1.20;;
36355;SDS011;22384;54.302;18.596;2023-10-09T08:40:42;3.57;;;1.23;;
36355;SDS011;22384;54.302;18.596;2023-10-09T08:43:15;2.72;;;1.30;;
36355;SDS011;22384;54.302;18.596;2023-10-09T08:45:52;4.15;;;1.30;;
36355;SDS011;22384;54.302;18.596;2023-10-09T08:48:21;2.38;;;1.10;;
36355;SDS011;22384;54.302;18.596;2023-10-09T08:50:51;4.10;;;1.40;;
36355;SDS011;22384;54.302;18.596;2023-10-09T08:53:21;4.45;;;1.33;;
36355;SDS011;22384;54.302;18.596;2023-10-09T08:55:47;3.60;;;1.00;;
36355;SDS011;22384;54.302;18.596;2023-10-09T08:58:17;2.65;;;1.00;;
36355;SDS011;22384;54.302;18.596;2023-10-09T09:00:50;3.85;;;0.90;;
36355;SDS011;22384;54.302;18.596;2023-10-09T09:03:18;1.75;;;1.05;;
36355;SDS011;22384;54.302;18.596;2023-10-09T09:05:48;4.13;;;1.00;;
36355;SDS011;22384;54.302;18.596;2023-10-09T09:08:23;1.38;;;0.73;;
36355;SDS011;22384;54.302;18.596;2023-10-09T09:10:57;3.00;;;1.10;;
36355;SDS011;22384;54.302;18.596;2023-10-09T09:16:13;3.25;;;0.90;;
36355;SDS011;22384;54.302;18.596;2023-10-09T09:18:49;1.98;;;0.80;;
36355;SDS011;22384;54.302;18.596;2023-10-09T09:21:30;1.45;;;0.90;;
36355;SDS011;22384;54.302;18.596;2023-10-09T09:24:02;2.90;;;1.13;;
36355;SDS011;22384;54.302;18.596;2023-10-09T09:26:38;1.98;;;1.20;;
36355;SDS011;22384;54.302;18.596;2023-10-09T09:29:11;2.63;;;1.13;;
36355;SDS011;22384;54.302;18.596;2023-10-09T09:31:37;6.47;;;1.77;;
36355;SDS011;22384;54.302;18.596;2023-10-09T09:34:04;2.88;;;1.08;;
36355;SDS011;22384;54.302;18.596;2023-10-09T09:36:49;4.00;;;1.33;;
36355;SDS011;22384;54.302;18.596;2023-10-09T09:39:20;3.37;;;1.37;;
36355;SDS011;22384;54.302;18.596;2023-10-09T09:41:52;8.43;;;1.75;;
36355;SDS011;22384;54.302;18.596;2023-10-09T09:44:19;3.55;;;1.60;;
36355;SDS011;22384;54.302;18.596;2023-10-09T09:46:46;3.10;;;1.10;;
36355;SDS011;22384;54.302;18.596;2023-10-09T09:49:13;2.10;;;1.02;;
36355;SDS011;22384;54.302;18.596;2023-10-09T09:51:46;4.80;;;1.40;;
36355;SDS011;22384;54.302;18.596;2023-10-09T09:54:15;7.13;;;1.17;;
36355;SDS011;22384;54.302;18.596;2023-10-09T09:56:45;7.05;;;1.30;;
36355;SDS011;22384;54.302;18.596;2023-10-09T09:59:17;1.85;;;1.02;;
36355;SDS011;22384;54.302;18.596;2023-10-09T10:01:47;2.95;;;1.35;;
36355;SDS011;22384;54.302;18.596;2023-10-09T10:04:21;4.97;;;1.25;;
36355;SDS011;22384;54.302;18.596;2023-10-09T10:06:49;2.10;;;1.00;;
36355;SDS011;22384;54.302;18.596;2023-10-09T10:12:05;2.17;;;1.10;;
36355;SDS011;22384;54.302;18.596;2023-10-09T10:17:18;3.20;;;1.30;;
36355;SDS011;22384;54.302;18.596;2023-10-09T10:22:29;4.93;;;1.20;;
36355;SDS011;22384;54.302;18.596;2023-10-09T10:24:58;1.92;;;0.93;;
36355;SDS011;22384;54.302;18.596;2023-10-09T10:27:34;2.13;;;1.20;;
36355;SDS011;22384;54.302;18.596;2023-10-09T10:32:57;2.45;;;1.10;;
36355;SDS011;22384;54.302;18.596;2023-10-09T10:35:23;2.72;;;1.20;;
36355;SDS011;22384;54.302;18.596;2023-10-09T10:38:21;2.90;;;1.13;;
36355;SDS011;22384;54.302;18.596;2023-10-09T10:40:47;2.30;;;0.90;;
36355;SDS011;22384;54.302;18.596;2023-10-09T10:43:22;4.43;;;1.20;;
36355;SDS011;22384;54.302;18.596;2023-10-09T10:46:04;4.97;;;1.02;;
36355;SDS011;22384;54.302;18.596;2023-10-09T10:51:05;3.53;;;1.10;;
36355;SDS011;22384;54.302;18.596;2023-10-09T10:53:31;0.80;;;0.60;;
36355;SDS011;22384;54.302;18.596;2023-10-09T10:58:38;2.47;;;0.82;;
36355;SDS011;22384;54.302;18.596;2023-10-09T11:01:13;1.63;;;0.80;;
36355;SDS011;22384;54.302;18.596;2023-10-09T11:03:39;1.55;;;0.75;;
36355;SDS011;22384;54.302;18.596;2023-10-09T11:06:27;2.25;;;0.73;;
36355;SDS011;22384;54.302;18.596;2023-10-09T11:09:04;1.23;;;0.77;;
36355;SDS011;22384;54.302;18.596;2023-10-09T11:11:51;3.03;;;0.93;;
36355;SDS011;22384;54.302;18.596;2023-10-09T11:14:46;5.65;;;1.00;;
36355;SDS011;22384;54.302;18.596;2023-10-09T11:17:31;1.67;;;0.82;;
36355;SDS011;22384;54.302;18.596;2023-10-09T11:19:57;2.63;;;0.90;;
36355;SDS011;22384;54.302;18.596;2023-10-09T11:22:23;2.50;;;0.93;;
36355;SDS011;22384;54.302;18.596;2023-10-09T11:25:01;2.70;;;0.95;;
36355;SDS011;22384;54.302;18.596;2023-10-09T11:27:36;2.67;;;0.80;;
36355;SDS011;22384;54.302;18.596;2023-10-09T11:30:05;2.15;;;0.90;;
36355;SDS011;22384;54.302;18.596;2023-10-09T11:35:10;1.10;;;0.70;;
36355;SDS011;22384;54.302;18.596;2023-10-09T11:37:39;2.33;;;1.10;;
36355;SDS011;22384;54.302;18.596;2023-10-09T11:40:07;2.63;;;0.73;;
36355;SDS011;22384;54.302;18.596;2023-10-09T11:42:49;4.32;;;1.05;;
36355;SDS011;22384;54.302;18.596;2023-10-09T11:45:20;3.35;;;0.60;;
36355;SDS011;22384;54.302;18.596;2023-10-09T11:47:48;1.17;;;0.82;;
36355;SDS011;22384;54.302;18.596;2023-10-09T11:53:08;1.08;;;0.63;;
36355;SDS011;22384;54.302;18.596;2023-10-09T11:55:43;1.65;;;0.80;;
36355;SDS011;22384;54.302;18.596;2023-10-09T11:58:13;3.30;;;0.85;;
36355;SDS011;22384;54.302;18.596;2023-10-09T12:00:39;0.88;;;0.63;;
36355;SDS011;22384;54.302;18.596;2023-10-09T12:03:12;3.47;;;0.82;;
36355;SDS011;22384;54.302;18.596;2023-10-09T12:05:39;2.28;;;0.73;;
36355;SDS011;22384;54.302;18.596;2023-10-09T12:08:09;3.65;;;0.93;;
36355;SDS011;22384;54.302;18.596;2023-10-09T12:10:36;1.70;;;0.73;;
36355;SDS011;22384;54.302;18.596;2023-10-09T12:13:06;2.15;;;0.88;;
36355;SDS011;22384;54.302;18.596;2023-10-09T12:15:32;4.53;;;0.70;;
36355;SDS011;22384;54.302;18.596;2023-10-09T12:18:04;1.95;;;0.68;;
36355;SDS011;22384;54.302;18.596;2023-10-09T12:20:32;1.15;;;0.90;;
36355;SDS011;22384;54.302;18.596;2023-10-09T12:22:58;1.27;;;0.50;;
36355;SDS011;22384;54.302;18.596;2023-10-09T12:25:25;1.60;;;0.80;;
36355;SDS011;22384;54.302;18.596;2023-10-09T12:27:51;2.60;;;0.90;;
36355;SDS011;22384;54.302;18.596;2023-10-09T12:30:22;1.15;;;0.70;;
36355;SDS011;22384;54.302;18.596;2023-10-09T12:32:54;1.42;;;0.80;;
36355;SDS011;22384;54.302;18.596;2023-10-09T12:35:22;1.55;;;0.80;;
36355;SDS011;22384;54.302;18.596;2023-10-09T12:37:50;2.92;;;0.80;;
36355;SDS011;22384;54.302;18.596;2023-10-09T12:40:16;2.08;;;1.10;;
36355;SDS011;22384;54.302;18.596;2023-10-09T12:42:49;2.67;;;0.93;;
36355;SDS011;22384;54.302;18.596;2023-10-09T12:45:15;2.08;;;0.90;;
36355;SDS011;22384;54.302;18.596;2023-10-09T12:47:43;3.25;;;0.90;;
36355;SDS011;22384;54.302;18.596;2023-10-09T12:50:09;0.70;;;0.70;;
36355;SDS011;22384;54.302;18.596;2023-10-09T12:52:39;1.30;;;0.75;;
36355;SDS011;22384;54.302;18.596;2023-10-09T12:55:05;1.40;;;0.73;;
36355;SDS011;22384;54.302;18.596;2023-10-09T12:57:35;1.20;;;0.70;;
36355;SDS011;22384;54.302;18.596;2023-10-09T13:00:02;1.73;;;0.82;;
36355;SDS011;22384;54.302;18.596;2023-10-09T13:02:36;0.60;;;0.60;;
36355;SDS011;22384;54.302;18.596;2023-10-09T13:05:02;1.60;;;0.68;;
36355;SDS011;22384;54.302;18.596;2023-10-09T13:07:32;1.20;;;0.63;;
36355;SDS011;22384;54.302;18.596;2023-10-09T13:09:58;1.45;;;0.82;;
36355;SDS011;22384;54.302;18.596;2023-10-09T13:12:36;1.35;;;0.80;;
36355;SDS011;22384;54.302;18.596;2023-10-09T13:15:08;4.13;;;0.60;;
36355;SDS011;22384;54.302;18.596;2023-10-09T13:17:35;1.20;;;0.63;;
36355;SDS011;22384;54.302;18.596;2023-10-09T13:20:02;5.03;;;0.98;;
36355;SDS011;22384;54.302;18.596;2023-10-09T13:22:37;1.38;;;0.90;;
36355;SDS011;22384;54.302;18.596;2023-10-09T13:25:04;4.32;;;0.77;;
36355;SDS011;22384;54.302;18.596;2023-10-09T13:27:30;1.90;;;0.70;;
36355;SDS011;22384;54.302;18.596;2023-10-09T13:29:59;1.20;;;0.80;;
36355;SDS011;22384;54.302;18.596;2023-10-09T13:32:33;1.98;;;0.80;;
36355;SDS011;22384;54.302;18.596;2023-10-09T13:35:03;1.38;;;0.73;;
36355;SDS011;22384;54.302;18.596;2023-10-09T13:37:30;1.70;;;0.60;;
36355;SDS011;22384;54.302;18.596;2023-10-09T13:40:02;2.90;;;0.95;;
36355;SDS011;22384;54.302;18.596;2023-10-09T13:42:34;2.92;;;0.77;;
36355;SDS011;22384;54.302;18.596;2023-10-09T13:45:02;5.18;;;0.90;;
36355;SDS011;22384;54.302;18.596;2023-10-09T13:47:40;0.82;;;0.55;;
36355;SDS011;22384;54.302;18.596;2023-10-09T13:50:09;1.58;;;0.70;;
36355;SDS011;22384;54.302;18.596;2023-10-09T13:52:35;1.90;;;0.73;;
36355;SDS011;22384;54.302;18.596;2023-10-09T13:55:05;3.78;;;0.90;;
36355;SDS011;22384;54.302;18.596;2023-10-09T13:57:40;0.75;;;0.60;;
36355;SDS011;22384;54.302;18.596;2023-10-09T14:00:08;0.90;;;0.80;;
36355;SDS011;22384;54.302;18.596;2023-10-09T14:02:54;8.57;;;0.95;;
36355;SDS011;22384;54.302;18.596;2023-10-09T14:05:20;2.03;;;0.82;;
36355;SDS011;22384;54.302;18.596;2023-10-09T14:07:46;2.33;;;0.90;;
36355;SDS011;22384;54.302;18.596;2023-10-09T14:10:12;6.82;;;1.23;;
36355;SDS011;22384;54.302;18.596;2023-10-09T14:12:50;2.58;;;1.40;;
36355;SDS011;22384;54.302;18.596;2023-10-09T14:15:19;3.53;;;1.95;;
36355;SDS011;22384;54.302;18.596;2023-10-09T14:17:45;3.08;;;1.08;;
36355;SDS011;22384;54.302;18.596;2023-10-09T14:20:21;7.43;;;2.20;;
36355;SDS011;22384;54.302;18.596;2023-10-09T14:22:56;2.50;;;1.00;;
36355;SDS011;22384;54.302;18.596;2023-10-09T14:25:22;2.67;;;1.38;;
36355;SDS011;22384;54.302;18.596;2023-10-09T14:27:48;4.78;;;1.40;;
36355;SDS011;22384;54.302;18.596;2023-10-09T14:30:17;1.40;;;1.00;;
36355;SDS011;22384;54.302;18.596;2023-10-09T14:32:55;4.43;;;1.00;;
36355;SDS011;22384;54.302;18.596;2023-10-09T14:35:21;4.30;;;0.77;;
36355;SDS011;22384;54.302;18.596;2023-10-09T14:37:52;2.77;;;0.87;;
36355;SDS011;22384;54.302;18.596;2023-10-09T14:40:22;4.82;;;0.95;;
36355;SDS011;22384;54.302;18.596;2023-10-09T14:42:57;1.08;;;0.65;;
36355;SDS011;22384;54.302;18.596;2023-10-09T14:45:24;2.03;;;1.00;;
36355;SDS011;22384;54.302;18.596;2023-10-09T14:47:51;1.50;;;1.08;;
36355;SDS011;22384;54.302;18.596;2023-10-09T14:50:19;5.10;;;1.77;;
36355;SDS011;22384;54.302;18.596;2023-10-09T14:52:47;5.40;;;2.00;;
36355;SDS011;22384;54.302;18.596;2023-10-09T14:55:13;3.10;;;1.33;;
36355;SDS011;22384;54.302;18.596;2023-10-09T14:57:45;2.30;;;0.90;;
36355;SDS011;22384;54.302;18.596;2023-10-09T15:00:12;5.47;;;1.23;;
36355;SDS011;22384;54.302;18.596;2023-10-09T15:02:39;4.88;;;1.25;;
36355;SDS011;22384;54.302;18.596;2023-10-09T15:05:05;3.65;;;0.80;;
36355;SDS011;22384;54.302;18.596;2023-10-09T15:07:36;2.78;;;0.88;;
36355;SDS011;22384;54.302;18.596;2023-10-09T15:10:06;5.38;;;0.73;;
36355;SDS011;22384;54.302;18.596;2023-10-09T15:12:34;7.47;;;1.50;;
36355;SDS011;22384;54.302;18.596;2023-10-09T15:17:36;7.95;;;1.40;;
36355;SDS011;22384;54.302;18.596;2023-10-09T15:20:03;3.53;;;0.90;;
36355;SDS011;22384;54.302;18.596;2023-10-09T15:22:35;4.32;;;1.48;;
36355;SDS011;22384;54.302;18.596;2023-10-09T15:25:01;3.47;;;1.02;;
36355;SDS011;22384;54.302;18.596;2023-10-09T15:27:30;4.97;;;1.48;;
36355;SDS011;22384;54.302;18.596;2023-10-09T15:29:56;4.38;;;1.77;;
36355;SDS011;22384;54.302;18.596;2023-10-09T15:32:25;9.18;;;2.00;;
36355;SDS011;22384;54.302;18.596;2023-10-09T15:34:55;13.25;;;2.60;;
36355;SDS011;22384;54.302;18.596;2023-10-09T15:37:21;14.98;;;4.07;;
36355;SDS011;22384;54.302;18.596;2023-10-09T15:39:47;22.35;;;4.72;;
36355;SDS011;22384;54.302;18.596;2023-10-09T15:42:17;18.13;;;6.20;;
36355;SDS011;22384;54.302;18.596;2023-10-09T15:44:43;17.80;;;6.50;;
36355;SDS011;22384;54.302;18.596;2023-10-09T15:47:13;15.55;;;5.60;;